Altus Air Force Base
KLTS : now visible

Airfield :











YOU CAN JOIN US ON...

 
LOGIN :

Register | Disclaimer

   EN    FR    IT 

 









Legend :    VFR   Marginal VFR   IFR   Intensive IFR   Very Intensive IFR
Visi :
Ceiling :
>= 8 km
>= 3000ft
5 to 8 km
1000 to 3000 ft
1500m to 5 km
500 to 1000 ft
800 to 1500m
200 to 500 ft
< 800m
< 200 ft
Symbols :   Thunderstorms  Fog  Heavy snow  Heavy precipitations  Wind > 20 kt






- Airport Elevation : 1382 ft


KLTS - Altus Air Force Base

CURRENT METAR :
  • 072056Z AUTO 19014KT 10SM BKN190 38/16 A2993 RMK AO2 PK WND 20028/30 SLP116 T03750164 57016 $

EXPIRED METARs :
  • 071956Z AUTO 18015KT 10SM SCT180 35/17 A2995 RMK AO2 SLP125 T03530170 $
  • 071856Z AUTO 20018G25KT 10SM FEW150 SCT170 SCT210 35/18 A2996 RMK AO2 PK WND 18027/28 SLP128 T03540180 $

TAF TAF KLTS
Valid from the 07 at 17:00 until the 08 at 23:00 UTC


071700Z 0717/0823 19015G25KT 9999 SCT100 510023 QNH2984INS
BECMG 0801/0802 16012KT 9999 SCT110 510042 QNH2986INS
BECMG 0814/0815 20020G30KT 9999 SCT110 510003 QNH2992INS TX38/0722Z TN26/0812Z
KZFW FIR / North America



MET'MAP, your aeronautical weather chart ! - Copyright ORBIFLY December 2007 - Disclaimer

ORBIFLY MET'MAP TEAM :

Programming & Development : Alexandra Zaïnal
Concept & original design : Baudouin d'Aumeries
Assistance for programming : Marc-Olivier Méhu
Technical & hardware support : Manuel Goepfert

Contact : metmap@orbifly.com




SOURCES & CREDITS :

   NOAA       Earth
Advisory